Elko, Nevada
Current Conditions -  °F | °C
As of 6:56 PM on Friday 28 Nov 2014 (Local Time) from KEKO Reporting Station
Overcast Overcast  
Wind Chill: 40°   Ceiling: 3300
Heat Index: 40°   Visibility: 10mi
Dew Point: 18°   Wind: 0mph
Humidity: 41%   Direction: NA
Pressure: 29.81"   Gusts: NA
Location:  40.84°N, 115.76°W
Report Text: KEKO 290256Z AUTO 00000KT 10SM OVC033 04/M08 A2981 RMK AO2 SLP103 T00441078 58006
Loading
Personal Weather Stations






























Interactive Weather Map New forecast layout! Learn more

10-Day Weather Forecast

Advertisements
Track Severe Weather on mobile